CYWA

Petawawa Airport

Petawawa, Ontario, Canada
TAF AMD CYWA 251603Z 2516/2524 14012KT 2SM -RA BR OVC005 TEMPO 2516/2522 6SM -RA BR OVC010 FM252200 14012KT 2SM -RA BR OVC004 RMK FCST BASED ON AUTO OBS. NXT FCST BY 251800Z
Issued Valid From Valid To
Sep-25 @ 16:03 UTC
(an hour ago)
Sep-25 @ 16:00 UTC
(2 hours ago)
Sep-26 @ 00:00 UTC
(in 6 hours)
Sep-25 @ 16:00 to Sep-25 @ 22:00
TAF AMD CYWA 251603Z 2516/2524 14012KT 2SM -RA BR OVC005
Wind Visibility Clouds Conditions
140° at 12 knots 2 miles
  • Overcast at 500' AGL
  • Light Rain
  • Mist
Temporary Sep-25 @ 16:00 to Sep-25 @ 22:00
TEMPO 2516/2522 6SM -RA BR OVC010
Visibility Clouds Conditions
6 miles
  • Overcast at 1,000' AGL
  • Light Rain
  • Mist
From Sep-25 @ 22:00 to Sep-26 @ 00:00
FM252200 14012KT 2SM -RA BR OVC004 RMK FCST BASED ON AUTO OBS. NXT FCST BY 251800Z
Wind Visibility Clouds Conditions
140° at 12 knots 2 miles
  • Overcast at 400' AGL
  • Light Rain
  • Mist
TAF AMD CYWA 251603Z 2516/2524 14012KT 2SM -RA BR OVC005 TEMPO 2516/2522 6SM -RA BR OVC010 FM252200 14012KT 2SM -RA BR OVC004 RMK FCST BASED ON AUTO OBS. NXT FCST BY 251800Z
Issued Sep-25 @ 16:03 UTC
(an hour ago)
Valid From Sep-25 @ 16:00 UTC
(2 hours ago)
Valid To Sep-26 @ 00:00 UTC
(in 6 hours)
Sep-25 @ 16:00 - Sep-25 @ 22:00
Wind Visibility
140° at 12 knots 2 miles
Clouds
  • Overcast at 500' AGL
Conditions
  • Light Rain
  • Mist
Temporary Sep-25 @ 16:00 - Sep-25 @ 22:00
Clouds
  • Overcast at 1,000' AGL
Conditions
  • Light Rain
  • Mist
From Sep-25 @ 22:00 - Sep-26 @ 00:00
Wind Visibility
140° at 12 knots 2 miles
Clouds
  • Overcast at 400' AGL
Conditions
  • Light Rain
  • Mist